Eagle River, Canada
Current Conditions -  °F | °C
As of 8:00 AM on Thursday 29 Jan 2015 (Local Time) from CYHD Reporting Station
Light Snow Light Snow  
Wind Chill: -9°   Ceiling: 4500
Heat Index:   Visibility: 9mi
Dew Point:   Wind: 13mph
Humidity: 85%   Direction: 330°NNW
Pressure: 30.13"   Gusts: 20mph
Location:  49.78°N, 93.18°W
Report Text: CYHD 291400Z AUTO 33011G17KT 300V010 9SM -SN SCT019 BKN045 OVC060 M14/M16 A3013 RMK SLP237
Loading
Personal Weather Stations






























Interactive Weather Map New forecast layout! Learn more

10-Day Weather Forecast

Advertisements
Track Severe Weather on mobile